Derby, Australia

12:35 PM AWST on April 24, 2018 (GMT +0800)
DERBY WA 6728 | | Change Station

Elev 52 ft 17.31 °S, 123.65 °E | Updated 4 minutes ago

Scattered Clouds
Scattered Clouds
97.2 °F
Feels Like 110 °F
N
0.0
Wind Variable Wind from North

Today
High -- | Low -- °F
--% Chance of Precip.
Yesterday
High -- | Low -- °F
Precip. -- in
Pressure 29.80 in
Visibility 6.2 miles
Clouds Scattered Clouds 4900 ft
Heat Index 110 °F
Dew Point 79 °F
Humidity 49%
Rainfall Not available.
Snow Depth Not available.
5:56 AM 5:30 PM
Waxing Gibbous, 64% visible
METAR YDBY 240400Z AUTO 30010KT 9999 // SCT049 34/24 Q1009
Pressure 29.80 in
Visibility 6.2 miles
Clouds Scattered Clouds 4900 ft
Heat Index 110 °F
Dew Point 79 °F
Humidity 49%
Rainfall Not available.
Snow Depth Not available.
5:56 AM 5:30 PM
Waxing Gibbous, 64% visible
METAR YDBY 240400Z AUTO 30010KT 9999 // SCT049 34/24 Q1009

Get Severe Weather Alerts

Thanks for signing up!

Be on the lookout for a verification email in your inbox.

You'll start receiving the daily forecast at 6 AM.

×

10-Day Weather Forecast

×

Almanac

Astronomy

Apr. 24, 2018 Rise Set
Actual Time
Civil Twilight
Nautical Twilight
Astronomical Twilight
Moon
Length of Visible Light
Length of Day
Tomorrow will be .
, % of the Moon is Illuminated

Today's Extremes

Country Highs Country Lows

Community

WunderPhotos

Category 6

Welcome to Category 6. This is the collective home for Weather Underground's featured writeups by Dr. Jeff Masters (right), Bob Henson (left), Chris Burt, and other regular contributors.

Nearby

Air Quality

  Air Quality AQ Index Pollutant
Not available.

Snow Depth

Station Depth Elevation

Earthquake Activity

City Distance Mag. Time & Date
Minimum magnitude displayed is 2.5.

Coastal Water Temperatures

Place Temperature

Stations

Nearby Weather Stations

Station Location Temp. Windchill Dew Point Humidity Wind Precip. Elev Updated Type